FMNM/MJN METAR and TAF weather

Enter ICAO airport designator
Station Type Date Time Source
FMNM METAR 2019/04/18 20:00 UTC NOAA

FMNM 182000Z 00000KT 9999 FEW020CB 25/24 Q1013


Station Type Date Time Source
FMNM Decoded METAR 2019/04/18 20:00 UTC NOAA

Majunga, Madagascar (FMNM) 15-40S 046-21E 18M
Apr 18, 2019 - 04:00 PM EDT / 2019.04.18 2000 UTC
Wind: Calm:0
Visibility: greater than 7 mile(s):0
Sky conditions: mostly clear
Weather: Cumulonimbus clouds observed
Temperature: 77 F (25 C)
Dew Point: 75 F (24 C)
Relative Humidity: 94%
Pressure (altimeter): 29.91 in. Hg (1013 hPa)
ob: FMNM 182000Z 00000KT 9999 FEW020CB 25/24 Q1013
cycle: 20

Station Type Date Time Source
FMNM TAF 2019/04/18 18:05 UTC NOAA

TAF FMNM 181700Z 1818/1918 10004KT 9999 SCT020CB SCT040 PROB40
TEMPO 1818/1903 4500 TSRA
BECMG 1904/1906 FEW020

Example: see airport list